createdAt,value
2019-04-28T00:02:04.642Z,9.80
2019-04-28T00:04:34.207Z,9.83
2019-04-28T00:07:03.755Z,9.72
2019-04-28T00:09:33.295Z,9.84
2019-04-28T00:12:03.625Z,9.78
2019-04-28T00:14:33.124Z,9.73
2019-04-28T00:17:02.745Z,9.73
2019-04-28T00:19:32.297Z,9.67
2019-04-28T00:22:11.054Z,9.77
2019-04-28T00:24:42.351Z,9.73
2019-04-28T00:27:12.369Z,9.65
2019-04-28T00:29:46.001Z,9.57
2019-04-28T00:32:13.278Z,9.77
2019-04-28T00:34:42.775Z,9.95
2019-04-28T00:37:13.990Z,9.81
2019-04-28T00:39:43.459Z,9.77
2019-04-28T00:42:13.032Z,9.69
2019-04-28T00:44:43.398Z,9.56
2019-04-28T00:47:13.034Z,9.65
2019-04-28T00:49:48.422Z,9.63
2019-04-28T00:52:19.702Z,9.53
2019-04-28T00:54:49.603Z,9.40
2019-04-28T00:57:21.047Z,9.42
2019-04-28T00:59:57.795Z,9.53
2019-04-28T01:02:35.744Z,9.44
2019-04-28T01:05:08.617Z,9.46
2019-04-28T01:07:38.157Z,9.50
2019-04-28T01:10:10.942Z,9.56
2019-04-28T01:12:41.172Z,9.64
2019-04-28T01:15:13.124Z,9.37
2019-04-28T01:17:42.416Z,9.34
2019-04-28T01:20:13.793Z,9.46
2019-04-28T01:22:43.266Z,9.47
2019-04-28T01:25:13.151Z,9.76
2019-04-28T01:27:42.430Z,9.51
2019-04-28T01:30:29.974Z,9.54
2019-04-28T01:33:03.855Z,9.69
2019-04-28T01:35:33.342Z,9.60
2019-04-28T01:38:02.828Z,9.67
2019-04-28T01:40:32.399Z,9.77
2019-04-28T01:43:01.871Z,9.80
2019-04-28T01:45:31.391Z,9.72
2019-04-28T01:48:02.289Z,9.51
2019-04-28T01:50:31.847Z,9.63
2019-04-28T01:53:01.385Z,9.66
2019-04-28T01:55:30.971Z,9.64
2019-04-28T01:58:00.460Z,9.45
2019-04-28T02:00:30.374Z,9.48
2019-04-28T02:03:01.805Z,9.45
2019-04-28T02:05:31.108Z,9.56
2019-04-28T02:08:00.607Z,9.50
2019-04-28T02:10:30.273Z,9.48
2019-04-28T02:12:59.963Z,9.70
2019-04-28T02:15:30.227Z,9.66
2019-04-28T02:18:00.219Z,9.43
2019-04-28T02:20:30.214Z,9.60
2019-04-28T02:23:04.166Z,9.55
2019-04-28T02:25:33.736Z,9.46
2019-04-28T02:28:03.223Z,9.49
2019-04-28T02:30:47.760Z,9.56
2019-04-28T02:33:03.986Z,9.67
2019-04-28T02:35:34.229Z,9.49
2019-04-28T02:38:04.075Z,9.41
2019-04-28T02:40:33.555Z,9.46
2019-04-28T02:43:03.027Z,9.34
2019-04-28T02:45:33.866Z,9.18
2019-04-28T02:48:05.021Z,9.33
2019-04-28T02:50:36.117Z,9.21
2019-04-28T02:53:13.492Z,9.19
2019-04-28T02:55:42.967Z,9.28
2019-04-28T02:58:13.497Z,9.38
2019-04-28T03:01:00.998Z,9.21
2019-04-28T03:03:14.585Z,9.44
2019-04-28T03:05:44.196Z,9.22
2019-04-28T03:08:13.700Z,9.28
2019-04-28T03:10:43.351Z,9.19
2019-04-28T03:13:13.542Z,9.08
2019-04-28T03:15:43.948Z,9.31
2019-04-28T03:18:13.579Z,9.28
2019-04-28T03:20:43.287Z,9.13
2019-04-28T03:23:12.786Z,9.03
2019-04-28T03:25:42.035Z,9.13
2019-04-28T03:28:25.243Z,9.13
2019-04-28T03:31:34.297Z,9.16
2019-04-28T03:33:46.755Z,9.21
2019-04-28T03:36:13.887Z,9.25
2019-04-28T03:38:40.715Z,9.16
2019-04-28T03:41:11.170Z,9.08
2019-04-28T03:43:40.911Z,9.21
2019-04-28T03:46:21.883Z,9.43
2019-04-28T03:48:51.404Z,9.19
2019-04-28T03:51:21.312Z,9.19
2019-04-28T03:53:50.948Z,9.06
2019-04-28T03:56:21.023Z,9.09
2019-04-28T03:58:50.689Z,9.37
2019-04-28T04:01:20.814Z,9.13
2019-04-28T04:03:51.511Z,9.10
2019-04-28T04:06:22.723Z,9.13
2019-04-28T04:08:52.340Z,8.99
2019-04-28T04:11:35.305Z,9.18
2019-04-28T04:14:06.688Z,9.07
2019-04-28T04:16:46.625Z,9.21
2019-04-28T04:19:17.187Z,9.24
2019-04-28T04:21:46.667Z,8.94
2019-04-28T04:24:16.135Z,9.10
2019-04-28T04:26:45.691Z,9.22
2019-04-28T04:29:15.196Z,9.09
2019-04-28T04:31:44.726Z,8.93
2019-04-28T04:34:14.185Z,8.89
2019-04-28T04:36:43.663Z,9.31
2019-04-28T04:39:13.225Z,9.21
2019-04-28T04:41:43.818Z,9.19
2019-04-28T04:44:13.526Z,9.26
2019-04-28T04:46:43.029Z,9.38
2019-04-28T04:49:12.519Z,9.10
2019-04-28T04:51:43.897Z,9.33
2019-04-28T04:54:13.193Z,9.24
2019-04-28T04:56:42.663Z,9.13
2019-04-28T04:59:12.165Z,9.29
2019-04-28T05:01:52.125Z,9.28
2019-04-28T05:04:23.264Z,9.28
2019-04-28T05:06:52.746Z,9.42
2019-04-28T05:09:22.222Z,9.41
2019-04-28T05:11:52.872Z,9.38
2019-04-28T05:14:22.358Z,9.44
2019-04-28T05:16:51.826Z,9.50
2019-04-28T05:19:21.324Z,9.34
2019-04-28T05:21:50.889Z,9.15
2019-04-28T05:24:30.401Z,9.56
2019-04-28T05:26:59.962Z,9.62
2019-04-28T05:29:30.633Z,9.39
2019-04-28T05:32:03.338Z,9.37
2019-04-28T05:34:31.611Z,9.31
2019-04-28T05:37:01.109Z,9.29
2019-04-28T05:39:30.601Z,9.52
2019-04-28T05:42:00.809Z,9.64
2019-04-28T05:44:32.083Z,9.52
2019-04-28T05:47:01.774Z,9.59
2019-04-28T05:49:43.024Z,9.48
2019-04-28T05:52:30.309Z,9.25
2019-04-28T05:55:07.096Z,9.24
2019-04-28T05:57:40.949Z,9.65
2019-04-28T06:00:13.223Z,9.64
2019-04-28T06:02:56.557Z,9.55
2019-04-28T06:05:24.029Z,9.66
2019-04-28T06:07:53.371Z,9.72
2019-04-28T06:10:22.938Z,9.89
2019-04-28T06:12:52.428Z,10.28
2019-04-28T06:15:21.956Z,10.08
2019-04-28T06:17:51.421Z,9.92
2019-04-28T06:20:21.156Z,10.21
2019-04-28T06:22:50.685Z,10.09
2019-04-28T06:25:20.198Z,10.24
2019-04-28T06:27:49.648Z,10.00
2019-04-28T06:30:19.364Z,10.14
2019-04-28T06:32:48.935Z,10.18
2019-04-28T06:35:18.501Z,10.17
2019-04-28T06:37:48.001Z,10.45
2019-04-28T06:40:17.675Z,10.61
2019-04-28T06:42:47.151Z,10.77
2019-04-28T06:45:16.664Z,10.68
2019-04-28T06:47:46.165Z,10.55
2019-04-28T06:50:15.864Z,10.78
2019-04-28T06:52:45.341Z,11.01
2019-04-28T06:55:14.977Z,11.38
2019-04-28T06:57:44.501Z,11.56
2019-04-28T07:00:14.333Z,10.97
2019-04-28T07:02:43.826Z,11.57
2019-04-28T07:05:13.456Z,12.03
2019-04-28T07:07:43.025Z,12.28
2019-04-28T07:10:12.603Z,11.82
2019-04-28T07:12:42.128Z,11.77
2019-04-28T07:15:11.746Z,11.69
2019-04-28T07:17:41.226Z,11.51
2019-04-28T07:20:21.687Z,11.70
2019-04-28T07:22:51.184Z,11.32
2019-04-28T07:25:20.674Z,11.56
2019-04-28T07:27:50.168Z,11.49
2019-04-28T07:30:19.795Z,11.84
2019-04-28T07:32:49.350Z,12.05
2019-04-28T07:35:19.308Z,11.97
2019-04-28T07:37:48.813Z,12.61
2019-04-28T07:40:18.376Z,14.15
2019-04-28T07:42:47.859Z,15.19
2019-04-28T07:45:17.441Z,16.29
2019-04-28T07:47:46.941Z,16.71
2019-04-28T07:50:16.433Z,18.35
2019-04-28T07:52:57.290Z,17.55
2019-04-28T07:55:26.955Z,16.14
2019-04-28T07:57:56.423Z,15.35
2019-04-28T08:00:27.602Z,13.87
2019-04-28T08:02:57.103Z,14.82
2019-04-28T08:05:26.667Z,14.37
2019-04-28T08:07:56.260Z,13.56
2019-04-28T08:10:25.746Z,13.05
2019-04-28T08:12:55.313Z,13.97
2019-04-28T08:15:24.798Z,16.32
2019-04-28T08:17:54.387Z,17.05
2019-04-28T08:20:23.976Z,18.53
2019-04-28T08:22:53.459Z,19.22
2019-04-28T08:25:22.953Z,17.88
2019-04-28T08:27:52.461Z,16.93
2019-04-28T08:30:22.010Z,15.00
2019-04-28T08:33:02.158Z,14.47
2019-04-28T08:35:31.687Z,13.87
2019-04-28T08:38:01.236Z,13.92
2019-04-28T08:40:30.774Z,13.42
2019-04-28T08:43:00.277Z,12.99
2019-04-28T08:45:29.926Z,11.94
2019-04-28T08:47:59.428Z,12.64
2019-04-28T08:50:28.958Z,12.67
2019-04-28T08:52:58.631Z,13.44
2019-04-28T08:55:28.194Z,13.28
2019-04-28T08:57:57.706Z,13.40
2019-04-28T09:00:27.211Z,13.22
2019-04-28T09:02:56.696Z,13.10
2019-04-28T09:05:27.286Z,13.40
2019-04-28T09:07:56.839Z,12.99
2019-04-28T09:10:26.339Z,13.02
2019-04-28T09:12:55.931Z,13.53
2019-04-28T09:15:25.414Z,14.44
2019-04-28T09:17:54.920Z,16.90
2019-04-28T09:20:24.443Z,18.76
2019-04-28T09:22:53.923Z,17.04
2019-04-28T09:25:23.421Z,15.69
2019-04-28T09:27:53.000Z,14.82
2019-04-28T09:30:22.602Z,14.37
2019-04-28T09:32:52.098Z,14.46
2019-04-28T09:35:21.704Z,13.43
2019-04-28T09:37:51.206Z,14.06
2019-04-28T09:40:20.678Z,13.60
2019-04-28T09:43:07.456Z,14.23
2019-04-28T09:45:47.404Z,14.87
2019-04-28T09:48:16.914Z,15.81
2019-04-28T09:50:46.509Z,16.77
2019-04-28T09:53:16.002Z,15.88
2019-04-28T09:55:45.502Z,16.36
2019-04-28T09:58:14.994Z,15.70
2019-04-28T10:00:45.402Z,16.42
2019-04-28T10:03:14.948Z,15.23
2019-04-28T10:05:44.520Z,16.08
2019-04-28T10:08:13.996Z,16.38
2019-04-28T10:10:43.510Z,17.50
2019-04-28T10:13:12.995Z,17.64
2019-04-28T10:15:42.575Z,18.19
2019-04-28T10:18:12.083Z,18.77
2019-04-28T10:20:41.732Z,19.85
2019-04-28T10:23:11.856Z,17.83
2019-04-28T10:25:41.769Z,17.65
2019-04-28T10:28:11.357Z,18.89
2019-04-28T10:30:40.986Z,18.14
2019-04-28T10:33:10.494Z,19.13
2019-04-28T10:35:39.977Z,17.85
2019-04-28T10:38:09.493Z,16.41
2019-04-28T10:40:48.672Z,17.81
2019-04-28T10:43:18.255Z,16.57
2019-04-28T10:45:51.396Z,17.15
2019-04-28T10:48:20.900Z,17.54
2019-04-28T10:50:50.498Z,17.96
2019-04-28T10:53:20.070Z,17.80
2019-04-28T10:55:49.589Z,18.24
2019-04-28T10:58:19.122Z,17.22
2019-04-28T11:00:48.674Z,17.81
2019-04-28T11:03:18.147Z,18.04
2019-04-28T11:05:47.740Z,17.53
2019-04-28T11:08:34.853Z,18.17
2019-04-28T11:11:05.979Z,17.77
2019-04-28T11:13:35.466Z,17.71
2019-04-28T11:16:05.040Z,20.51
2019-04-28T11:18:34.634Z,20.10
2019-04-28T11:21:04.345Z,18.70
2019-04-28T11:23:33.865Z,17.60
2019-04-28T11:26:03.466Z,15.99
2019-04-28T11:28:33.039Z,17.05
2019-04-28T11:31:02.765Z,17.83
2019-04-28T11:33:39.989Z,17.10
2019-04-28T11:36:09.613Z,18.43
2019-04-28T11:38:39.134Z,18.15
2019-04-28T11:41:11.515Z,18.62
2019-04-28T11:43:40.007Z,18.92
2019-04-28T11:46:11.192Z,18.31
2019-04-28T11:48:40.709Z,18.03
2019-04-28T11:51:10.283Z,17.22
2019-04-28T11:53:39.790Z,16.50
2019-04-28T11:56:09.396Z,15.63
2019-04-28T11:58:38.979Z,16.19
2019-04-28T12:01:09.835Z,15.94
2019-04-28T12:03:39.336Z,15.54
2019-04-28T12:06:09.082Z,15.51
2019-04-28T12:08:38.601Z,15.02
2019-04-28T12:11:15.757Z,14.89
2019-04-28T12:13:56.040Z,15.26
2019-04-28T12:16:43.047Z,15.46
2019-04-28T12:19:14.232Z,15.42
2019-04-28T12:21:43.706Z,15.73
2019-04-28T12:24:13.193Z,16.10
2019-04-28T12:26:42.695Z,16.28
2019-04-28T12:29:12.178Z,16.27
2019-04-28T12:31:41.699Z,16.43
2019-04-28T12:34:11.197Z,16.70
2019-04-28T12:36:40.664Z,17.05
2019-04-28T12:39:10.445Z,17.09
2019-04-28T12:41:39.955Z,16.28
2019-04-28T12:44:09.558Z,16.19
2019-04-28T12:46:39.112Z,15.90
2019-04-28T12:49:22.341Z,14.53
2019-04-28T12:51:51.898Z,14.40
2019-04-28T12:54:23.175Z,14.13
2019-04-28T12:56:52.731Z,13.40
2019-04-28T12:59:26.599Z,13.75
2019-04-28T13:02:03.511Z,13.46
2019-04-28T13:04:34.764Z,14.32
2019-04-28T13:07:10.677Z,14.46
2019-04-28T13:09:40.207Z,14.66
2019-04-28T13:12:10.799Z,14.37
2019-04-28T13:14:40.457Z,15.04
2019-04-28T13:17:10.109Z,14.31
2019-04-28T13:19:39.690Z,14.28
2019-04-28T13:22:09.321Z,14.69
2019-04-28T13:24:38.849Z,14.20
2019-04-28T13:27:10.212Z,14.52
2019-04-28T13:29:39.602Z,14.31
2019-04-28T13:32:09.168Z,14.79
2019-04-28T13:34:40.566Z,15.10
2019-04-28T13:37:10.254Z,14.79
2019-04-28T13:39:50.271Z,14.21
2019-04-28T13:42:19.793Z,13.95
2019-04-28T13:45:02.883Z,14.06
2019-04-28T13:47:32.375Z,13.63
2019-04-28T13:50:03.493Z,13.68
2019-04-28T13:52:33.132Z,13.20
2019-04-28T13:55:07.385Z,12.43
2019-04-28T13:57:36.973Z,12.01
2019-04-28T14:00:13.779Z,12.15
2019-04-28T14:02:47.616Z,11.84
2019-04-28T14:05:21.598Z,11.83
2019-04-28T14:07:51.076Z,11.54
2019-04-28T14:10:20.611Z,11.82
2019-04-28T14:12:50.178Z,11.63
2019-04-28T14:15:19.633Z,11.68
2019-04-28T14:17:49.132Z,12.01
2019-04-28T14:20:18.685Z,11.95
2019-04-28T14:22:48.189Z,11.74
2019-04-28T14:25:17.747Z,11.71
2019-04-28T14:27:47.213Z,11.71
2019-04-28T14:30:16.881Z,11.77
2019-04-28T14:32:46.375Z,11.90
2019-04-28T14:35:16.154Z,12.14
2019-04-28T14:37:45.721Z,12.16
2019-04-28T14:40:15.483Z,12.16
2019-04-28T14:42:44.987Z,12.13
2019-04-28T14:45:14.707Z,12.03
2019-04-28T14:47:44.270Z,12.04
2019-04-28T14:50:14.223Z,12.32
2019-04-28T14:52:43.872Z,12.52
2019-04-28T14:55:13.408Z,12.89
2019-04-28T14:57:43.021Z,13.62
2019-04-28T15:00:14.646Z,13.18
2019-04-28T15:02:51.611Z,12.93
2019-04-28T15:05:40.634Z,13.12
2019-04-28T15:08:14.338Z,13.15
2019-04-28T15:10:49.293Z,13.60
2019-04-28T15:13:20.172Z,13.83
2019-04-28T15:15:49.787Z,13.67
2019-04-28T15:18:19.530Z,13.99
2019-04-28T15:20:49.120Z,14.17
2019-04-28T15:23:18.609Z,13.77
2019-04-28T15:25:48.224Z,13.58
2019-04-28T15:28:17.706Z,13.97
2019-04-28T15:30:47.188Z,13.63
2019-04-28T15:33:16.696Z,12.97
2019-04-28T15:35:46.305Z,12.47
2019-04-28T15:38:15.840Z,12.34
2019-04-28T15:40:45.342Z,12.08
2019-04-28T15:43:14.996Z,12.24
2019-04-28T15:45:44.497Z,12.00
2019-04-28T15:48:14.091Z,12.12
2019-04-28T15:50:43.744Z,11.81
2019-04-28T15:53:13.289Z,12.14
2019-04-28T15:55:47.523Z,11.85
2019-04-28T15:58:33.214Z,11.77
2019-04-28T16:01:03.184Z,11.82
2019-04-28T16:03:32.723Z,12.09
2019-04-28T16:06:02.385Z,11.83
2019-04-28T16:08:31.997Z,11.74
2019-04-28T16:11:01.542Z,11.97
2019-04-28T16:13:31.067Z,12.13
2019-04-28T16:16:00.598Z,12.79
2019-04-28T16:18:30.148Z,12.87
2019-04-28T16:20:59.736Z,12.86
2019-04-28T16:23:29.214Z,12.73
2019-04-28T16:25:58.730Z,12.87
2019-04-28T16:28:28.237Z,12.83
2019-04-28T16:30:57.855Z,12.92
2019-04-28T16:33:27.475Z,13.15
2019-04-28T16:35:56.956Z,13.08
2019-04-28T16:38:26.501Z,12.58
2019-04-28T16:40:57.751Z,12.34
2019-04-28T16:43:29.085Z,12.01
2019-04-28T16:45:58.734Z,12.22
2019-04-28T16:48:28.294Z,11.97
2019-04-28T16:50:57.819Z,11.89
2019-04-28T16:53:27.326Z,12.27
2019-04-28T16:55:58.574Z,11.72
2019-04-28T16:58:45.816Z,11.86
2019-04-28T17:01:26.218Z,11.75
2019-04-28T17:03:55.788Z,11.82
2019-04-28T17:06:25.554Z,11.89
2019-04-28T17:08:55.160Z,11.94
2019-04-28T17:11:24.750Z,11.97
2019-04-28T17:13:54.279Z,12.15
2019-04-28T17:16:23.885Z,12.01
2019-04-28T17:18:53.464Z,11.90
2019-04-28T17:21:23.041Z,11.85
2019-04-28T17:23:52.568Z,11.77
2019-04-28T17:26:22.151Z,11.78
2019-04-28T17:28:51.876Z,12.03
2019-04-28T17:31:21.394Z,12.19
2019-04-28T17:33:50.998Z,11.89
2019-04-28T17:36:20.798Z,11.88
2019-04-28T17:38:50.482Z,11.88
2019-04-28T17:41:19.958Z,11.67
2019-04-28T17:43:49.548Z,11.75
2019-04-28T17:46:19.163Z,11.82
2019-04-28T17:48:50.284Z,12.09
2019-04-28T17:51:19.780Z,11.82
2019-04-28T17:53:49.292Z,11.62
2019-04-28T17:56:18.874Z,11.55
2019-04-28T17:58:48.393Z,11.38
2019-04-28T18:01:36.039Z,11.47
2019-04-28T18:04:23.370Z,11.41
2019-04-28T18:06:57.490Z,11.21
2019-04-28T18:09:27.340Z,11.24
2019-04-28T18:11:56.978Z,11.22
2019-04-28T18:14:26.544Z,11.10
2019-04-28T18:17:13.721Z,10.98
2019-04-28T18:19:43.335Z,10.85
2019-04-28T18:22:12.937Z,10.73
2019-04-28T18:24:42.427Z,10.55
2019-04-28T18:27:11.925Z,10.48
2019-04-28T18:29:41.523Z,10.44
2019-04-28T18:32:24.851Z,10.43
2019-04-28T18:34:58.860Z,10.37
2019-04-28T18:37:45.887Z,10.17
2019-04-28T18:40:23.240Z,9.99
2019-04-28T18:42:55.011Z,9.85
2019-04-28T18:45:24.649Z,9.66
2019-04-28T18:47:54.228Z,9.50
2019-04-28T18:50:23.815Z,9.36
2019-04-28T18:52:53.418Z,9.15
2019-04-28T18:55:22.906Z,9.09
2019-04-28T18:57:52.626Z,8.95
2019-04-28T19:00:23.810Z,8.87
2019-04-28T19:02:53.387Z,8.75
2019-04-28T19:05:24.519Z,8.64
2019-04-28T19:08:02.648Z,8.51
2019-04-28T19:10:40.723Z,8.36
2019-04-28T19:13:11.856Z,8.27
2019-04-28T19:15:58.896Z,8.27
2019-04-28T19:18:35.741Z,8.15
2019-04-28T19:21:05.628Z,8.03
2019-04-28T19:23:35.112Z,7.94
2019-04-28T19:26:04.762Z,7.94
2019-04-28T19:28:34.264Z,7.95
2019-04-28T19:31:03.781Z,7.84
2019-04-28T19:33:33.411Z,7.76
2019-04-28T19:36:02.980Z,7.72
2019-04-28T19:38:32.484Z,7.80
2019-04-28T19:41:01.989Z,7.63
2019-04-28T19:43:31.484Z,7.56
2019-04-28T19:46:02.723Z,7.52
2019-04-28T19:48:32.319Z,7.44
2019-04-28T19:51:01.936Z,7.52
2019-04-28T19:53:31.960Z,7.48
2019-04-28T19:56:09.225Z,7.44
2019-04-28T19:58:46.194Z,7.33
2019-04-28T20:01:20.463Z,7.29
2019-04-28T20:03:50.008Z,7.26
2019-04-28T20:06:19.597Z,7.21
2019-04-28T20:08:49.105Z,7.15
2019-04-28T20:11:18.728Z,7.05
2019-04-28T20:13:48.411Z,7.01
2019-04-28T20:16:17.972Z,6.96
2019-04-28T20:18:49.036Z,6.92
2019-04-28T20:21:18.751Z,6.87
2019-04-28T20:23:48.265Z,6.82
2019-04-28T20:26:17.854Z,6.78
2019-04-28T20:28:47.494Z,6.71
2019-04-28T20:31:17.010Z,6.72
2019-04-28T20:33:46.553Z,6.72
2019-04-28T20:36:20.614Z,6.70
2019-04-28T20:38:51.818Z,6.71
2019-04-28T20:41:22.988Z,6.74
2019-04-28T20:43:54.024Z,6.73
2019-04-28T20:46:23.529Z,6.66
2019-04-28T20:48:53.046Z,6.63
2019-04-28T20:51:22.660Z,6.67
2019-04-28T20:53:52.220Z,6.74
2019-04-28T20:56:21.725Z,6.65
2019-04-28T20:58:51.196Z,6.66
2019-04-28T21:01:20.708Z,6.59
2019-04-28T21:03:50.209Z,6.56
2019-04-28T21:06:19.769Z,6.57
2019-04-28T21:08:49.270Z,6.53
2019-04-28T21:11:18.840Z,6.49
2019-04-28T21:13:48.358Z,6.50
2019-04-28T21:16:17.925Z,6.38
2019-04-28T21:18:47.461Z,6.36
2019-04-28T21:21:16.943Z,6.39
2019-04-28T21:23:46.443Z,6.37
2019-04-28T21:26:15.934Z,6.31
2019-04-28T21:28:45.450Z,6.23
2019-04-28T21:31:14.961Z,6.16
2019-04-28T21:33:44.458Z,6.12
2019-04-28T21:36:14.024Z,6.10
2019-04-28T21:38:43.522Z,6.00
2019-04-28T21:41:14.697Z,5.87
2019-04-28T21:43:48.901Z,5.90
2019-04-28T21:46:22.497Z,5.88
2019-04-28T21:48:53.684Z,5.84
2019-04-28T21:51:23.166Z,5.85
2019-04-28T21:53:52.663Z,5.87
2019-04-28T21:56:22.184Z,5.82
2019-04-28T21:58:51.686Z,5.77
2019-04-28T22:01:23.273Z,5.79
2019-04-28T22:03:52.779Z,5.75
2019-04-28T22:06:22.341Z,5.72
2019-04-28T22:08:51.893Z,5.64
2019-04-28T22:11:21.372Z,5.61
2019-04-28T22:13:50.852Z,5.54
2019-04-28T22:16:20.346Z,5.56
2019-04-28T22:18:49.871Z,5.60
2019-04-28T22:21:19.382Z,5.69
2019-04-28T22:23:50.591Z,5.84
2019-04-28T22:26:37.508Z,5.85
2019-04-28T22:29:07.077Z,5.81
2019-04-28T22:31:36.546Z,5.75
2019-04-28T22:34:06.166Z,5.71
2019-04-28T22:36:35.756Z,5.66
2019-04-28T22:39:07.802Z,5.58
2019-04-28T22:41:37.668Z,5.52
2019-04-28T22:44:07.387Z,5.47
2019-04-28T22:46:37.133Z,5.44
2019-04-28T22:49:06.938Z,5.32
2019-04-28T22:51:36.671Z,5.31
2019-04-28T22:54:10.787Z,5.31
2019-04-28T22:56:41.980Z,5.36
2019-04-28T22:59:24.980Z,5.31
2019-04-28T23:01:59.140Z,5.31
2019-04-28T23:04:30.344Z,5.20
2019-04-28T23:06:59.992Z,5.15
2019-04-28T23:09:29.679Z,5.13
2019-04-28T23:11:59.164Z,5.12
2019-04-28T23:14:28.746Z,5.21
2019-04-28T23:16:58.479Z,5.17
2019-04-28T23:19:29.718Z,5.15
2019-04-28T23:22:15.791Z,5.10
2019-04-28T23:24:45.299Z,5.08
2019-04-28T23:27:14.786Z,5.05
2019-04-28T23:29:44.304Z,5.04
2019-04-28T23:32:14.535Z,5.03
2019-04-28T23:34:44.078Z,5.00
2019-04-28T23:37:13.740Z,4.99
2019-04-28T23:39:43.286Z,4.98
2019-04-28T23:42:29.153Z,5.03
2019-04-28T23:44:58.629Z,5.04
2019-04-28T23:47:28.133Z,5.05
2019-04-28T23:49:57.899Z,4.98
2019-04-28T23:52:29.017Z,4.91
2019-04-28T23:55:00.166Z,4.84
2019-04-28T23:57:29.676Z,4.80
2019-04-28T23:59:59.162Z,4.78
